• Join FlightAware (Why Join?)
  • Login
  • US Flag 
05:38AM EDT


 

Airport Tracker/Info


-or-


 

Live Flight TrackerFlight Track Log ✈ UCA596 ✈ 23-Feb-2014 ✈ KIAD - KBGM

Flight Track Log - Related Links

Times and Time Zones

All times are in EST time to prevent confusion due to time zone crossing. See the UCA596 flight status page for this flight to view local times or setup timezone preferences in your user account.

Time Position Orientation Groundspeed Altitude Reporting Facility
EST Latitude Longitude Course Direction KTS MPH feet Rate Location/Type
01:08PM 39.0000 -77.4333 360° North 164 189 2,300  Level Potomac TRACON
01:09PM 39.0333 -77.4333 360° North 178 205 3,900 1,560 Climbing Potomac TRACON
01:10PM 39.0833 -77.4333 360° North 174 200 5,500 1,560 Climbing Potomac TRACON
01:11PM 39.1333 -77.4667 333° Northwest 169 194 6,900 1,380 Climbing Potomac TRACON
01:12PM 39.1833 -77.4667 360° North 179 206 8,400 1,440 Climbing Potomac TRACON
01:13PM 39.2333 -77.4833 346° North 183 211 9,800 1,440 Climbing Potomac TRACON
01:14PM 39.2833 -77.5000 346° North 189 217 11,200 1,260 Climbing Potomac TRACON
01:16PM 39.3672 -77.5056 357° North 196 226 13,400 1,200 Climbing Washington Center
01:17PM 39.4300 -77.4939 North 206 237 14,600 1,200 Climbing Washington Center
01:19PM 39.5392 -77.4747 North 221 254 16,800 1,200 Climbing New York Center
01:20PM 39.5986 -77.4586 12° North 221 254 17,900 1,080 Climbing New York Center
01:21PM 39.6658 -77.4517 North 221 254 19,000 540 Climbing New York Center
01:22PM 39.7261 -77.4519 360° North 226 260 19,000  Level New York Center
01:23PM 39.8056 -77.4514 360° North 248 285 19,000  Level New York Center
01:24PM 39.8722 -77.4522 359° North 259 298 19,000  Level New York Center
01:25PM 39.9581 -77.4469 North 277 319 19,000  Level New York Center
01:26PM 40.0203 -77.4503 358° North 277 319 19,000  Level New York Center
01:27PM 40.1122 -77.4456 North 272 313 19,000  Level New York Center
01:28PM 40.1811 -77.4439 North 272 313 19,000  Level New York Center
01:29PM 40.2667 -77.4439 360° North 272 313 19,000  Level New York Center
01:30PM 40.3356 -77.4453 359° North 272 313 19,000  Level New York Center
01:31PM 40.4189 -77.4450 360° North 272 313 19,000  Level New York Center
01:32PM 40.4897 -77.4436 North 272 313 19,000  Level New York Center
01:33PM 40.5733 -77.4408 North 272 313 19,000  Level New York Center
01:34PM 40.6442 -77.4394 North 272 313 19,000  Level New York Center
01:35PM 40.7236 -77.4392 360° North 278 320 19,000  Level New York Center
01:36PM 40.7992 -77.3889 27° Northeast 283 326 19,000 -300 Level New York Center
01:37PM 40.8806 -77.3117 36° Northeast 298 343 18,400 -900 Descending New York Center
01:39PM 41.0361 -77.1753 33° Northeast 327 376 16,400 -1,020 Descending New York Center
01:40PM 41.1128 -77.1053 35° Northeast 327 376 15,400 -1,020 Descending New York Center
01:41PM 41.1872 -77.0378 34° Northeast 327 376 14,400 -1,080 Descending New York Center
01:42PM 41.2617 -76.9703 34° Northeast 327 376 13,300 -720 Descending New York Center
01:43PM 41.3361 -76.9025 34° Northeast 322 371 13,000 -180 Descending New York Center
01:44PM 41.4081 -76.8369 34° Northeast 322 371 13,000  Level New York Center
01:45PM 41.4650 -76.7814 36° Northeast 322 371 13,000  Level New York Center
01:46PM 41.5436 -76.7106 34° Northeast 322 371 13,000  Level New York Center
01:47PM 41.6136 -76.6447 35° Northeast 316 364 13,000 -540 Level New York Center
01:48PM 41.6922 -76.5711 35° Northeast 316 364 12,000 -960 Descending New York Center
01:49PM 41.7489 -76.5175 35° Northeast 311 358 11,100 -1,140 Descending New York Center
01:50PM 41.8294 -76.4467 33° Northeast 311 358 9,800 -1,320 Descending New York Center
01:51PM 41.8906 -76.3878 36° Northeast 295 339 8,500 -1,200 Descending New York Center
01:52PM 41.9478 -76.3172 43° Northeast 282 325 7,500 -1,140 Descending New York Center
01:53PM 42.0078 -76.2386 44° Northeast 276 318 6,300 -1,020 Descending New York Center
01:54PM 42.0586 -76.1731 44° Northeast 270 311 5,500 -660 Descending New York Center
01:55PM 42.1114 -76.1131 40° Northeast 258 297 5,000 -660 Descending New York Center
01:56PM 42.1633 -76.0697 32° Northeast 237 273 4,200 -780 Descending New York Center
01:57PM 42.2156 -76.0625 North 198 228 3,500 -600 Descending New York Center
01:58PM 42.2600 -76.0494 12° North 179 206 3,000 -600 Descending New York Center
01:59PM 42.2431 -76.0089 119° Southeast 84 97 2,300 -480 Descending New York Center
02:00PM 42.2547 -75.9789 62° Northeast 78 90 2,100 5,340 Descending New York Center
02:01PM 42.2600 -75.9514 75° East 78 90 13,000 10,860 Climbing New York Center
02:03PM 42.2000 -75.9667 North  Level FlightAware Approximate
02:10PM 42.2084 -75.9796 North  Level Estimated